createdAt,value
2022-12-13T00:01:34.367Z,17.53
2022-12-13T00:04:05.070Z,14.73
2022-12-13T00:06:34.311Z,15.17
2022-12-13T00:09:02.848Z,14.30
2022-12-13T00:11:30.717Z,12.87
2022-12-13T00:13:59.276Z,14.13
2022-12-13T00:16:28.449Z,12.83
2022-12-13T00:18:59.484Z,18.23
2022-12-13T00:21:30.966Z,15.43
2022-12-13T00:24:00.107Z,12.07
2022-12-13T00:26:30.175Z,14.60
2022-12-13T00:29:00.597Z,13.40
2022-12-13T00:34:22.504Z,13.90
2022-12-13T00:36:50.779Z,13.53
2022-12-13T00:39:19.347Z,13.03
2022-12-13T00:41:47.735Z,12.70
2022-12-13T00:44:15.980Z,15.27
2022-12-13T00:46:44.236Z,16.23
2022-12-13T00:49:13.424Z,13.90
2022-12-13T00:51:42.662Z,15.17
2022-12-13T00:54:11.497Z,15.30
2022-12-13T00:56:39.685Z,14.57
2022-12-13T00:59:07.537Z,12.70
2022-12-13T01:01:37.540Z,14.00
2022-12-13T01:04:06.809Z,13.17
2022-12-13T01:06:37.770Z,15.30
2022-12-13T01:09:12.356Z,15.53
2022-12-13T01:11:40.276Z,14.70
2022-12-13T01:14:08.150Z,16.43
2022-12-13T01:16:36.180Z,15.50
2022-12-13T01:19:04.350Z,13.57
2022-12-13T01:21:32.216Z,13.27
2022-12-13T01:24:04.363Z,12.57
2022-12-13T01:26:34.965Z,13.37
2022-12-13T01:29:05.285Z,12.87
2022-12-13T01:31:33.560Z,15.73
2022-12-13T01:34:10.668Z,16.13
2022-12-13T01:36:39.227Z,13.67
2022-12-13T01:39:14.397Z,14.93
2022-12-13T01:41:45.552Z,14.03
2022-12-13T01:44:50.739Z,13.83
2022-12-13T01:47:23.775Z,14.97
2022-12-13T01:49:53.158Z,12.00
2022-12-13T01:52:22.610Z,16.83
2022-12-13T01:54:54.182Z,13.23
2022-12-13T01:57:24.441Z,15.90
2022-12-13T01:59:53.722Z,16.30
2022-12-13T02:02:22.073Z,17.47
2022-12-13T02:04:54.371Z,13.97
2022-12-13T02:07:27.566Z,14.27
2022-12-13T02:09:58.757Z,16.20
2022-12-13T02:12:31.256Z,13.67
2022-12-13T02:15:01.622Z,16.10
2022-12-13T02:17:44.499Z,15.60
2022-12-13T02:20:44.287Z,16.07
2022-12-13T02:23:57.826Z,13.20
2022-12-13T02:26:44.160Z,14.17
2022-12-13T02:29:41.158Z,14.90
2022-12-13T02:32:17.348Z,15.30
2022-12-13T02:34:51.545Z,9.13
2022-12-13T02:37:26.315Z,15.03
2022-12-13T02:40:01.730Z,12.70
2022-12-13T02:42:34.902Z,16.43
2022-12-13T02:45:08.352Z,14.83
2022-12-13T02:47:41.532Z,15.93
2022-12-13T02:50:14.948Z,15.90
2022-12-13T02:52:46.625Z,16.97
2022-12-13T02:55:17.709Z,19.03
2022-12-13T02:57:48.704Z,13.23
2022-12-13T03:00:19.157Z,14.17
2022-12-13T03:03:01.910Z,16.10
2022-12-13T03:05:57.772Z,13.03
2022-12-13T03:08:30.590Z,16.53
2022-12-13T03:11:05.919Z,14.40
2022-12-13T03:13:41.987Z,14.50
2022-12-13T03:16:15.910Z,13.13
2022-12-13T03:18:54.006Z,13.73
2022-12-13T03:21:23.176Z,15.73
2022-12-13T03:23:51.022Z,13.67
2022-12-13T03:26:22.488Z,16.10
2022-12-13T03:28:50.610Z,16.27
2022-12-13T03:31:18.741Z,14.97
2022-12-13T03:33:47.059Z,13.80
2022-12-13T03:36:18.780Z,15.47
2022-12-13T03:38:47.017Z,14.33
2022-12-13T03:41:17.964Z,15.40
2022-12-13T03:43:46.323Z,16.07
2022-12-13T03:46:14.229Z,17.10
2022-12-13T03:48:42.096Z,14.43
2022-12-13T03:51:09.924Z,15.73
2022-12-13T03:53:39.084Z,14.73
2022-12-13T03:56:07.378Z,15.90
2022-12-13T03:58:37.900Z,17.90
2022-12-13T04:01:07.713Z,12.57
2022-12-13T04:03:35.865Z,14.30
2022-12-13T04:06:04.635Z,14.23
2022-12-13T04:08:33.219Z,13.63
2022-12-13T04:11:23.651Z,20.23
2022-12-13T04:13:50.908Z,16.47
2022-12-13T04:16:18.848Z,16.40
2022-12-13T04:18:46.857Z,16.80
2022-12-13T04:21:14.970Z,15.83
2022-12-13T04:23:42.799Z,15.80
2022-12-13T04:26:12.053Z,13.63
2022-12-13T04:28:39.984Z,13.97
2022-12-13T04:31:07.960Z,14.50
2022-12-13T04:33:35.852Z,17.20
2022-12-13T04:36:04.195Z,16.30
2022-12-13T04:38:32.073Z,16.13
2022-12-13T04:41:14.225Z,16.10
2022-12-13T04:43:43.466Z,13.90
2022-12-13T04:46:12.742Z,14.60
2022-12-13T04:48:40.731Z,17.33
2022-12-13T04:51:08.656Z,15.10
2022-12-13T04:53:36.506Z,12.77
2022-12-13T04:56:05.477Z,15.73
2022-12-13T04:58:33.343Z,12.63
2022-12-13T05:01:02.965Z,15.67
2022-12-13T05:03:30.893Z,11.93
2022-12-13T05:05:58.699Z,15.73
2022-12-13T05:08:26.569Z,16.43
2022-12-13T05:10:55.563Z,16.50
2022-12-13T05:13:23.342Z,15.20
2022-12-13T05:15:56.085Z,14.73
2022-12-13T05:18:25.782Z,11.70
2022-12-13T05:20:54.396Z,13.20
2022-12-13T05:23:25.013Z,13.97
2022-12-13T05:25:53.165Z,16.83
2022-12-13T05:28:27.572Z,17.27
2022-12-13T05:30:57.554Z,16.77
2022-12-13T05:33:27.211Z,15.17
2022-12-13T05:36:00.507Z,19.07
2022-12-13T05:38:32.310Z,15.63
2022-12-13T05:41:00.944Z,13.60
2022-12-13T05:43:42.077Z,14.93
2022-12-13T05:46:10.684Z,12.80
2022-12-13T05:48:40.075Z,12.60
2022-12-13T05:51:09.794Z,12.97
2022-12-13T05:53:40.006Z,15.87
2022-12-13T05:56:10.198Z,16.30
2022-12-13T05:58:38.993Z,15.27
2022-12-13T06:01:08.730Z,15.00
2022-12-13T06:03:36.937Z,16.63
2022-12-13T06:06:08.591Z,15.27
2022-12-13T06:08:37.249Z,17.40
2022-12-13T06:11:10.662Z,16.07
2022-12-13T06:13:43.246Z,16.70
2022-12-13T06:16:21.921Z,19.07
2022-12-13T06:18:55.757Z,14.17
2022-12-13T06:21:40.715Z,16.77
2022-12-13T06:24:11.811Z,16.80
2022-12-13T06:26:39.560Z,15.30
2022-12-13T06:29:07.612Z,14.93
2022-12-13T06:31:35.503Z,17.27
2022-12-13T06:34:14.835Z,17.13
2022-12-13T06:36:44.691Z,16.07
2022-12-13T06:39:12.559Z,16.43
2022-12-13T06:41:40.472Z,16.53
2022-12-13T06:44:08.917Z,16.23
2022-12-13T06:46:37.055Z,17.40
2022-12-13T06:49:08.978Z,16.50
2022-12-13T06:51:36.798Z,29.07
2022-12-13T06:54:06.067Z,39.10
2022-12-13T06:56:33.858Z,105.70
2022-12-13T06:59:02.387Z,59.27
2022-12-13T07:01:37.895Z,31.10
2022-12-13T07:04:29.594Z,29.20
2022-12-13T07:06:54.746Z,23.10
2022-12-13T07:09:24.018Z,21.00
2022-12-13T07:11:52.662Z,24.20
2022-12-13T07:14:21.051Z,24.83
2022-12-13T07:16:48.926Z,24.50
2022-12-13T07:19:23.782Z,21.60
2022-12-13T07:21:52.686Z,19.90
2022-12-13T07:24:20.732Z,17.83
2022-12-13T07:26:49.943Z,19.60
2022-12-13T07:29:22.476Z,21.80
2022-12-13T07:31:50.804Z,19.33
2022-12-13T07:34:18.740Z,18.37
2022-12-13T07:36:46.842Z,20.53
2022-12-13T07:39:14.671Z,19.23
2022-12-13T07:41:42.576Z,21.50
2022-12-13T07:44:11.764Z,33.40
2022-12-13T07:46:39.805Z,50.73
2022-12-13T07:49:07.770Z,78.93
2022-12-13T07:51:36.318Z,74.87
2022-12-13T07:54:06.255Z,31.57
2022-12-13T07:56:34.831Z,28.17
2022-12-13T07:59:02.784Z,23.80
2022-12-13T08:01:34.531Z,21.10
2022-12-13T08:04:03.004Z,22.60
2022-12-13T08:06:31.443Z,18.20
2022-12-13T08:08:59.411Z,20.63
2022-12-13T08:11:27.251Z,16.20
2022-12-13T08:13:55.232Z,21.43
2022-12-13T08:16:26.685Z,20.43
2022-12-13T08:19:02.697Z,19.10
2022-12-13T08:24:24.580Z,15.37
2022-12-13T08:26:55.380Z,16.87
2022-12-13T08:29:33.477Z,22.20
2022-12-13T08:32:04.366Z,19.00
2022-12-13T08:34:33.590Z,17.03
2022-12-13T08:37:03.581Z,19.03
2022-12-13T08:39:34.654Z,18.63
2022-12-13T08:42:15.214Z,17.63
2022-12-13T08:44:47.006Z,16.00
2022-12-13T08:47:23.203Z,12.10
2022-12-13T08:49:54.090Z,9.20
2022-12-13T08:52:23.236Z,8.40
2022-12-13T08:54:51.356Z,7.60
2022-12-13T08:57:19.193Z,7.20
2022-12-13T08:59:47.051Z,11.13
2022-12-13T09:02:15.352Z,10.17
2022-12-13T09:04:43.481Z,10.60
2022-12-13T09:07:12.886Z,8.47
2022-12-13T09:09:40.702Z,7.57
2022-12-13T09:12:10.695Z,9.57
2022-12-13T09:14:45.727Z,7.23
2022-12-13T09:17:24.526Z,8.60
2022-12-13T09:19:58.210Z,7.50
2022-12-13T09:22:33.398Z,8.00
2022-12-13T09:25:03.009Z,7.30
2022-12-13T09:27:39.516Z,8.87
2022-12-13T09:30:12.148Z,10.83
2022-12-13T09:32:40.606Z,7.10
2022-12-13T09:35:09.390Z,7.60
2022-12-13T09:37:44.155Z,7.03
2022-12-13T09:40:25.682Z,12.90
2022-12-13T09:43:13.686Z,7.97
2022-12-13T09:45:46.761Z,7.13
2022-12-13T09:48:22.707Z,8.73
2022-12-13T09:51:15.944Z,11.70
2022-12-13T09:53:42.601Z,8.17
2022-12-13T09:56:13.066Z,7.73
2022-12-13T09:58:40.960Z,11.13
2022-12-13T10:01:08.862Z,8.90
2022-12-13T10:03:36.774Z,6.97
2022-12-13T10:06:22.802Z,5.73
2022-12-13T10:08:58.364Z,7.23
2022-12-13T10:11:31.850Z,6.70
2022-12-13T10:14:03.695Z,8.07
2022-12-13T10:16:43.649Z,8.20
2022-12-13T10:19:29.036Z,7.20
2022-12-13T10:22:02.081Z,9.30
2022-12-13T10:24:49.443Z,7.93
2022-12-13T10:27:19.611Z,8.10
2022-12-13T10:29:59.825Z,8.97
2022-12-13T10:32:27.735Z,10.30
2022-12-13T10:34:56.278Z,7.23
2022-12-13T10:37:31.635Z,7.40
2022-12-13T10:40:00.915Z,9.27
2022-12-13T10:42:33.880Z,8.13
2022-12-13T10:45:23.603Z,7.60
2022-12-13T10:47:52.246Z,10.67
2022-12-13T10:50:26.342Z,8.80
2022-12-13T10:52:55.873Z,9.10
2022-12-13T10:55:30.636Z,8.70
2022-12-13T10:58:02.357Z,10.83
2022-12-13T11:00:38.762Z,10.87
2022-12-13T11:03:08.219Z,7.10
2022-12-13T11:05:38.232Z,6.60
2022-12-13T11:08:17.558Z,9.37
2022-12-13T11:10:47.782Z,8.60
2022-12-13T11:13:26.237Z,11.90
2022-12-13T11:15:57.786Z,9.13
2022-12-13T11:18:28.127Z,9.67
2022-12-13T11:20:58.351Z,9.83
2022-12-13T11:23:30.717Z,10.07
2022-12-13T11:26:05.922Z,11.27
2022-12-13T11:28:57.616Z,7.93
2022-12-13T11:31:32.763Z,11.03
2022-12-13T11:34:10.242Z,11.07
2022-12-13T11:36:48.522Z,10.60
2022-12-13T11:39:22.288Z,9.47
2022-12-13T11:41:56.154Z,11.93
2022-12-13T11:44:30.423Z,8.80
2022-12-13T11:47:01.092Z,12.10
2022-12-13T11:49:39.344Z,10.33
2022-12-13T11:52:16.404Z,9.33
2022-12-13T11:54:51.530Z,11.60
2022-12-13T11:57:33.313Z,9.30
2022-12-13T12:00:13.168Z,12.13
2022-12-13T12:02:48.546Z,8.20
2022-12-13T12:05:26.454Z,9.37
2022-12-13T12:08:43.430Z,8.87
2022-12-13T12:10:50.255Z,10.03
2022-12-13T12:13:25.434Z,11.33
2022-12-13T12:16:01.661Z,8.33
2022-12-13T12:18:29.710Z,7.80
2022-12-13T12:21:07.663Z,8.57
2022-12-13T12:23:52.434Z,8.80
2022-12-13T12:26:27.294Z,9.93
2022-12-13T12:29:21.228Z,14.27
2022-12-13T12:31:54.989Z,8.13
2022-12-13T12:34:34.785Z,9.60
2022-12-13T12:37:12.967Z,15.60
2022-12-13T12:40:02.241Z,11.03
2022-12-13T12:43:13.952Z,9.80
2022-12-13T12:45:59.683Z,9.60
2022-12-13T12:48:56.990Z,9.23
2022-12-13T12:51:34.072Z,11.90
2022-12-13T12:54:20.022Z,10.63
2022-12-13T12:56:56.475Z,10.37
2022-12-13T12:59:34.474Z,15.80
2022-12-13T13:02:12.672Z,20.53
2022-12-13T13:04:47.016Z,11.83
2022-12-13T13:07:22.608Z,12.83
2022-12-13T13:09:55.230Z,10.93
2022-12-13T13:12:30.353Z,13.00
2022-12-13T13:14:59.095Z,9.30
2022-12-13T13:17:48.136Z,10.83
2022-12-13T13:20:26.426Z,8.93
2022-12-13T13:23:17.519Z,9.57
2022-12-13T13:28:44.783Z,11.90
2022-12-13T13:31:12.658Z,9.43
2022-12-13T13:33:47.230Z,8.13
2022-12-13T13:36:47.217Z,11.83
2022-12-13T13:39:17.047Z,8.73
2022-12-13T13:42:09.110Z,12.47
2022-12-13T13:45:03.143Z,10.40
2022-12-13T13:47:42.842Z,10.13
2022-12-13T13:50:41.461Z,10.97
2022-12-13T13:53:46.694Z,13.13
2022-12-13T13:56:36.677Z,12.00
2022-12-13T13:59:24.762Z,9.90
2022-12-13T14:02:06.387Z,10.47
2022-12-13T14:05:16.921Z,11.97
2022-12-13T14:08:29.552Z,8.43
2022-12-13T14:11:22.151Z,9.97
2022-12-13T14:14:27.031Z,9.77
2022-12-13T14:17:32.810Z,8.87
2022-12-13T14:20:39.528Z,8.07
2022-12-13T14:23:13.739Z,11.80
2022-12-13T14:26:07.169Z,8.30
2022-12-13T14:28:46.130Z,9.40
2022-12-13T14:31:21.618Z,9.80
2022-12-13T14:33:52.123Z,7.63
2022-12-13T14:36:28.650Z,8.87
2022-12-13T14:39:03.498Z,9.40
2022-12-13T14:41:32.799Z,12.67
2022-12-13T14:44:16.434Z,8.33
2022-12-13T14:46:55.676Z,10.40
2022-12-13T14:49:25.999Z,9.33
2022-12-13T14:52:01.453Z,10.60
2022-12-13T14:54:46.038Z,13.50
2022-12-13T14:57:20.553Z,10.77
2022-12-13T14:59:50.725Z,9.93
2022-12-13T15:02:30.477Z,10.20
2022-12-13T15:05:02.079Z,13.33
2022-12-13T15:07:33.836Z,20.50
2022-12-13T15:10:04.713Z,27.10
2022-12-13T15:12:34.150Z,30.97
2022-12-13T15:15:04.127Z,41.37
2022-12-13T15:17:35.809Z,39.50
2022-12-13T15:20:25.386Z,29.27
2022-12-13T15:23:01.988Z,19.40
2022-12-13T15:25:40.563Z,13.60
2022-12-13T15:28:18.196Z,21.50
2022-12-13T15:30:49.859Z,36.23
2022-12-13T15:33:20.739Z,48.67
2022-12-13T15:35:49.677Z,37.97
2022-12-13T15:38:29.071Z,30.77
2022-12-13T15:40:57.471Z,26.30
2022-12-13T15:43:36.335Z,18.53
2022-12-13T15:46:12.628Z,22.20
2022-12-13T15:48:48.313Z,17.83
2022-12-13T15:51:30.347Z,17.50
2022-12-13T15:54:05.177Z,14.27
2022-12-13T15:56:36.472Z,18.13
2022-12-13T15:59:26.446Z,17.57
2022-12-13T16:01:58.655Z,39.03
2022-12-13T16:04:29.286Z,85.57
2022-12-13T16:07:03.228Z,64.40
2022-12-13T16:09:38.145Z,25.77
2022-12-13T16:12:07.995Z,22.10
2022-12-13T16:14:49.255Z,17.00
2022-12-13T16:17:24.587Z,15.20
2022-12-13T16:19:53.558Z,16.00
2022-12-13T16:22:23.993Z,14.60
2022-12-13T16:24:53.060Z,11.83
2022-12-13T16:27:21.546Z,10.67
2022-12-13T16:29:50.867Z,17.37
2022-12-13T16:32:18.858Z,25.27
2022-12-13T16:34:46.791Z,44.13
2022-12-13T16:37:26.478Z,56.73
2022-12-13T16:39:56.628Z,32.30
2022-12-13T16:42:26.149Z,19.87
2022-12-13T16:45:32.303Z,15.30
2022-12-13T16:47:49.316Z,28.00
2022-12-13T16:50:20.125Z,30.20
2022-12-13T16:52:48.173Z,28.60
2022-12-13T16:55:16.818Z,19.77
2022-12-13T16:57:56.419Z,18.03
2022-12-13T17:00:26.779Z,16.70
2022-12-13T17:02:54.946Z,16.20
2022-12-13T17:05:23.656Z,15.83
2022-12-13T17:07:51.531Z,17.80
2022-12-13T17:10:20.259Z,17.13
2022-12-13T17:12:48.127Z,16.40
2022-12-13T17:15:17.098Z,15.80
2022-12-13T17:17:47.710Z,15.10
2022-12-13T17:20:17.256Z,12.97
2022-12-13T17:22:46.538Z,18.93
2022-12-13T17:25:14.965Z,16.80
2022-12-13T17:27:43.098Z,58.60
2022-12-13T17:30:15.486Z,75.07
2022-12-13T17:32:43.491Z,35.87
2022-12-13T17:35:17.888Z,50.37
2022-12-13T17:37:46.603Z,34.10
2022-12-13T17:40:14.439Z,36.00
2022-12-13T17:42:42.405Z,24.97
2022-12-13T17:45:11.076Z,17.17
2022-12-13T17:47:39.698Z,18.00
2022-12-13T17:50:08.920Z,15.50
2022-12-13T17:52:39.099Z,17.10
2022-12-13T17:55:07.511Z,13.77
2022-12-13T17:57:35.823Z,16.10
2022-12-13T18:00:04.914Z,18.20
2022-12-13T18:02:40.741Z,16.20
2022-12-13T18:05:17.628Z,16.50
2022-12-13T18:07:50.638Z,14.47
2022-12-13T18:10:19.051Z,22.07
2022-12-13T18:12:46.835Z,20.17
2022-12-13T18:15:14.939Z,21.80
2022-12-13T18:18:10.055Z,20.67
2022-12-13T18:20:30.917Z,25.30
2022-12-13T18:23:00.087Z,30.90
2022-12-13T18:25:28.139Z,29.60
2022-12-13T18:28:00.676Z,25.30
2022-12-13T18:30:31.058Z,27.83
2022-12-13T18:32:58.894Z,25.67
2022-12-13T18:35:26.808Z,25.53
2022-12-13T18:37:54.605Z,26.53
2022-12-13T18:40:23.849Z,25.13
2022-12-13T18:42:52.116Z,19.70
2022-12-13T18:45:20.493Z,24.50
2022-12-13T18:47:48.996Z,23.27
2022-12-13T18:50:16.964Z,54.97
2022-12-13T18:52:44.879Z,37.90
2022-12-13T18:55:13.191Z,31.10
2022-12-13T18:57:42.855Z,27.87
2022-12-13T19:00:12.801Z,28.20
2022-12-13T19:02:41.676Z,28.87
2022-12-13T19:05:10.509Z,35.10
2022-12-13T19:07:38.394Z,32.60
2022-12-13T19:10:06.820Z,31.67
2022-12-13T19:12:34.997Z,29.53
2022-12-13T19:15:06.092Z,27.33
2022-12-13T19:17:34.461Z,30.80
2022-12-13T19:20:02.626Z,26.90
2022-12-13T19:22:30.800Z,26.87
2022-12-13T19:24:58.896Z,27.40
2022-12-13T19:27:26.808Z,27.17
2022-12-13T19:29:54.731Z,36.30
2022-12-13T19:32:23.956Z,31.80
2022-12-13T19:34:51.837Z,26.53
2022-12-13T19:37:19.660Z,26.90
2022-12-13T19:39:47.436Z,23.20
2022-12-13T19:42:15.382Z,24.40
2022-12-13T19:44:43.157Z,31.93
2022-12-13T19:47:11.047Z,34.33
2022-12-13T19:49:41.441Z,29.67
2022-12-13T19:52:09.328Z,35.93
2022-12-13T19:54:37.206Z,30.83
2022-12-13T19:57:07.366Z,34.63
2022-12-13T19:59:35.564Z,29.97
2022-12-13T20:02:05.522Z,31.63
2022-12-13T20:04:33.551Z,28.20
2022-12-13T20:07:03.361Z,26.33
2022-12-13T20:09:31.285Z,25.60
2022-12-13T20:11:59.106Z,23.33
2022-12-13T20:14:27.368Z,24.17
2022-12-13T20:16:55.338Z,29.80
2022-12-13T20:19:24.012Z,28.77
2022-12-13T20:21:56.698Z,28.53
2022-12-13T20:24:26.410Z,28.57
2022-12-13T20:26:54.301Z,26.47
2022-12-13T20:29:22.951Z,24.13
2022-12-13T20:31:51.587Z,24.70
2022-12-13T20:34:21.025Z,27.73
2022-12-13T20:36:49.282Z,27.17
2022-12-13T20:39:17.113Z,25.80
2022-12-13T20:41:46.303Z,25.53
2022-12-13T20:44:14.607Z,26.20
2022-12-13T20:46:42.559Z,25.87
2022-12-13T20:49:11.396Z,24.37
2022-12-13T20:51:41.519Z,27.27
2022-12-13T20:54:09.769Z,23.23
2022-12-13T20:56:39.682Z,22.37
2022-12-13T20:59:11.562Z,23.80
2022-12-13T21:01:40.633Z,26.57
2022-12-13T21:04:10.420Z,24.77
2022-12-13T21:06:40.702Z,25.50
2022-12-13T21:09:10.018Z,25.83
2022-12-13T21:11:40.668Z,26.40
2022-12-13T21:14:18.782Z,24.73
2022-12-13T21:16:50.323Z,26.90
2022-12-13T21:19:21.531Z,26.40
2022-12-13T21:21:50.796Z,25.70
2022-12-13T21:24:20.210Z,25.60
2022-12-13T21:26:48.432Z,24.80
2022-12-13T21:29:17.862Z,30.23
2022-12-13T21:31:51.472Z,22.67
2022-12-13T21:34:20.084Z,25.00
2022-12-13T21:36:50.421Z,27.47
2022-12-13T21:39:20.005Z,25.90
2022-12-13T21:41:48.459Z,26.63
2022-12-13T21:44:18.910Z,25.43
2022-12-13T21:47:11.191Z,26.00
2022-12-13T21:49:35.096Z,27.23
2022-12-13T21:52:03.046Z,22.80
2022-12-13T21:54:30.824Z,23.33
2022-12-13T21:57:16.314Z,23.53
2022-12-13T21:59:45.576Z,24.50
2022-12-13T22:02:16.365Z,23.70
2022-12-13T22:04:46.255Z,24.00
2022-12-13T22:07:16.159Z,24.23
2022-12-13T22:09:45.162Z,22.30
2022-12-13T22:12:21.080Z,26.13
2022-12-13T22:14:51.281Z,21.90
2022-12-13T22:17:28.256Z,25.33
2022-12-13T22:19:59.454Z,23.03
2022-12-13T22:22:27.573Z,25.80
2022-12-13T22:24:55.389Z,24.53
2022-12-13T22:27:25.437Z,26.57
2022-12-13T22:29:56.854Z,25.93
2022-12-13T22:32:26.978Z,26.50
2022-12-13T22:34:55.162Z,25.40
2022-12-13T22:37:23.070Z,25.03
2022-12-13T22:39:51.159Z,28.17
2022-12-13T22:42:20.066Z,24.17
2022-12-13T22:44:48.182Z,21.00
2022-12-13T22:47:17.474Z,20.23
2022-12-13T22:49:48.828Z,22.13
2022-12-13T22:52:17.223Z,21.00
2022-12-13T22:54:45.068Z,20.90
2022-12-13T22:57:12.992Z,18.13
2022-12-13T22:59:41.166Z,23.27
2022-12-13T23:02:09.979Z,19.73
2022-12-13T23:04:39.397Z,22.80
2022-12-13T23:07:07.283Z,19.87
2022-12-13T23:09:35.132Z,22.93
2022-12-13T23:12:20.559Z,19.03
2022-12-13T23:14:48.367Z,19.03
2022-12-13T23:17:16.126Z,19.63
2022-12-13T23:19:50.078Z,20.23
2022-12-13T23:22:19.882Z,25.40
2022-12-13T23:24:47.717Z,22.60
2022-12-13T23:27:15.817Z,23.13
2022-12-13T23:29:43.652Z,20.57
2022-12-13T23:32:11.645Z,24.23
2022-12-13T23:34:39.435Z,21.47
2022-12-13T23:37:08.670Z,22.70
2022-12-13T23:39:36.459Z,21.57
2022-12-13T23:42:04.498Z,25.13
2022-12-13T23:44:32.275Z,24.40
2022-12-13T23:47:00.096Z,23.93
2022-12-13T23:49:28.040Z,22.93
2022-12-13T23:51:56.016Z,24.47
2022-12-13T23:54:25.202Z,23.80
2022-12-13T23:56:53.010Z,24.80
2022-12-13T23:59:20.902Z,25.07
